createdAt,value
2022-09-24T00:01:35.073Z,7.60
2022-09-24T00:04:07.310Z,6.90
2022-09-24T00:06:36.637Z,6.57
2022-09-24T00:09:04.107Z,6.80
2022-09-24T00:11:30.871Z,7.47
2022-09-24T00:13:58.569Z,7.27
2022-09-24T00:16:27.382Z,7.07
2022-09-24T00:18:54.643Z,6.20
2022-09-24T00:21:25.228Z,7.50
2022-09-24T00:23:57.407Z,7.33
2022-09-24T00:26:43.425Z,7.77
2022-09-24T00:29:12.354Z,6.73
2022-09-24T00:31:39.136Z,6.60
2022-09-24T00:34:05.720Z,7.13
2022-09-24T00:36:32.417Z,6.73
2022-09-24T00:39:00.214Z,7.70
2022-09-24T00:41:33.310Z,6.70
2022-09-24T00:44:00.806Z,7.23
2022-09-24T00:46:42.895Z,6.77
2022-09-24T00:49:16.353Z,6.60
2022-09-24T00:51:45.404Z,6.83
2022-09-24T00:54:18.098Z,7.60
2022-09-24T00:56:46.846Z,8.20
2022-09-24T00:59:17.265Z,7.70
2022-09-24T01:01:48.771Z,8.00
2022-09-24T01:04:21.057Z,7.93
2022-09-24T01:06:52.057Z,7.77
2022-09-24T01:09:21.486Z,7.40
2022-09-24T01:12:02.074Z,7.83
2022-09-24T01:14:50.275Z,7.90
2022-09-24T01:17:38.450Z,7.20
2022-09-24T01:20:17.324Z,7.87
2022-09-24T01:23:26.371Z,7.50
2022-09-24T01:26:12.131Z,7.20
2022-09-24T01:29:00.501Z,7.13
2022-09-24T01:31:36.082Z,7.30
2022-09-24T01:34:05.748Z,8.43
2022-09-24T01:36:35.475Z,8.77
2022-09-24T01:39:05.190Z,8.43
2022-09-24T01:41:36.519Z,9.30
2022-09-24T01:44:07.784Z,8.20
2022-09-24T01:46:38.510Z,8.93
2022-09-24T01:49:07.132Z,8.63
2022-09-24T01:51:50.446Z,8.93
2022-09-24T01:54:24.906Z,9.03
2022-09-24T01:56:53.617Z,8.60
2022-09-24T01:59:30.093Z,9.30
2022-09-24T02:02:07.541Z,8.97
2022-09-24T02:04:39.455Z,9.17
2022-09-24T02:07:29.882Z,9.23
2022-09-24T02:09:56.402Z,9.00
2022-09-24T02:12:35.508Z,9.13
2022-09-24T02:15:20.811Z,8.77
2022-09-24T02:17:53.267Z,9.70
2022-09-24T02:20:21.936Z,9.70
2022-09-24T02:22:51.274Z,9.10
2022-09-24T02:25:25.069Z,8.80
2022-09-24T02:27:51.700Z,8.60
2022-09-24T02:30:18.776Z,7.90
2022-09-24T02:32:45.551Z,8.70
2022-09-24T02:35:13.132Z,9.43
2022-09-24T02:37:44.346Z,9.17
2022-09-24T02:40:13.899Z,9.23
2022-09-24T02:42:42.299Z,10.10
2022-09-24T02:45:10.325Z,9.53
2022-09-24T02:47:37.524Z,10.77
2022-09-24T02:50:04.647Z,10.70
2022-09-24T02:52:31.600Z,10.20
2022-09-24T02:54:58.139Z,10.40
2022-09-24T02:57:25.095Z,10.80
2022-09-24T02:59:51.590Z,10.47
2022-09-24T03:02:18.169Z,11.70
2022-09-24T03:04:44.853Z,12.83
2022-09-24T03:07:14.482Z,12.00
2022-09-24T03:09:41.041Z,11.70
2022-09-24T03:12:08.161Z,10.90
2022-09-24T03:14:34.690Z,11.43
2022-09-24T03:17:01.199Z,12.03
2022-09-24T03:19:28.143Z,12.43
2022-09-24T03:21:55.053Z,12.90
2022-09-24T03:24:21.559Z,12.07
2022-09-24T03:26:48.071Z,12.40
2022-09-24T03:29:14.623Z,12.23
2022-09-24T03:31:41.216Z,12.83
2022-09-24T03:34:08.680Z,13.03
2022-09-24T03:36:35.212Z,12.40
2022-09-24T03:39:01.726Z,11.77
2022-09-24T03:41:28.501Z,12.27
2022-09-24T03:43:55.889Z,12.80
2022-09-24T03:46:29.967Z,12.83
2022-09-24T03:48:58.955Z,12.67
2022-09-24T03:51:25.925Z,13.20
2022-09-24T03:53:52.459Z,12.23
2022-09-24T03:56:18.991Z,12.90
2022-09-24T03:58:47.852Z,13.27
2022-09-24T04:01:19.257Z,11.50
2022-09-24T04:03:45.881Z,12.23
2022-09-24T04:06:12.506Z,11.93
2022-09-24T04:08:39.021Z,13.20
2022-09-24T04:11:05.513Z,13.40
2022-09-24T04:13:32.027Z,12.23
2022-09-24T04:16:03.437Z,13.27
2022-09-24T04:18:30.012Z,13.10
2022-09-24T04:21:00.778Z,13.13
2022-09-24T04:23:28.681Z,12.57
2022-09-24T04:25:55.270Z,13.40
2022-09-24T04:28:21.770Z,12.60
2022-09-24T04:30:48.299Z,13.40
2022-09-24T04:33:14.867Z,13.90
2022-09-24T04:35:41.440Z,14.67
2022-09-24T04:38:07.981Z,15.13
2022-09-24T04:40:34.609Z,14.40
2022-09-24T04:43:02.772Z,15.20
2022-09-24T04:45:29.261Z,14.20
2022-09-24T04:47:58.645Z,14.43
2022-09-24T04:50:28.825Z,14.57
2022-09-24T04:52:55.983Z,15.17
2022-09-24T04:55:23.767Z,14.90
2022-09-24T04:57:50.899Z,14.40
2022-09-24T05:00:20.359Z,15.50
2022-09-24T05:02:47.082Z,13.80
2022-09-24T05:05:13.957Z,14.40
2022-09-24T05:07:42.673Z,15.90
2022-09-24T05:10:09.366Z,15.43
2022-09-24T05:12:36.879Z,14.67
2022-09-24T05:15:04.141Z,16.87
2022-09-24T05:17:30.846Z,15.60
2022-09-24T05:19:59.362Z,16.57
2022-09-24T05:22:27.895Z,28.37
2022-09-24T05:24:55.098Z,30.50
2022-09-24T05:27:23.084Z,23.97
2022-09-24T05:29:50.304Z,18.90
2022-09-24T05:32:19.546Z,16.13
2022-09-24T05:34:46.971Z,17.00
2022-09-24T05:37:14.698Z,15.23
2022-09-24T05:39:41.440Z,16.00
2022-09-24T05:42:10.446Z,15.70
2022-09-24T05:44:38.022Z,17.93
2022-09-24T05:47:04.698Z,15.83
2022-09-24T05:49:31.962Z,16.70
2022-09-24T05:51:58.866Z,16.33
2022-09-24T05:54:25.470Z,19.20
2022-09-24T05:56:51.962Z,15.90
2022-09-24T05:59:18.451Z,16.77
2022-09-24T06:01:45.128Z,14.90
2022-09-24T06:04:12.630Z,15.17
2022-09-24T06:06:39.151Z,15.10
2022-09-24T06:09:06.138Z,14.00
2022-09-24T06:11:40.158Z,13.90
2022-09-24T06:14:08.626Z,13.80
2022-09-24T06:16:35.688Z,15.50
2022-09-24T06:19:03.199Z,15.00
2022-09-24T06:21:29.884Z,14.00
2022-09-24T06:23:56.411Z,14.50
2022-09-24T06:26:23.077Z,15.07
2022-09-24T06:28:50.135Z,14.30
2022-09-24T06:31:16.809Z,15.03
2022-09-24T06:33:43.402Z,14.70
2022-09-24T06:36:10.627Z,14.50
2022-09-24T06:38:39.296Z,15.67
2022-09-24T06:41:06.757Z,15.60
2022-09-24T06:43:34.212Z,14.70
2022-09-24T06:46:00.840Z,14.47
2022-09-24T06:48:28.287Z,15.03
2022-09-24T06:50:56.280Z,13.87
2022-09-24T06:53:23.127Z,14.90
2022-09-24T06:55:49.774Z,14.70
2022-09-24T06:58:20.893Z,14.73
2022-09-24T07:00:58.791Z,14.20
2022-09-24T07:03:27.206Z,13.67
2022-09-24T07:05:54.104Z,15.23
2022-09-24T07:08:20.924Z,14.23
2022-09-24T07:10:49.185Z,15.40
2022-09-24T07:13:17.056Z,14.87
2022-09-24T07:15:44.874Z,14.77
2022-09-24T07:18:12.466Z,14.63
2022-09-24T07:20:39.631Z,14.60
2022-09-24T07:23:08.719Z,16.13
2022-09-24T07:25:36.296Z,14.20
2022-09-24T07:28:08.837Z,15.70
2022-09-24T07:30:36.633Z,15.60
2022-09-24T07:33:04.402Z,14.23
2022-09-24T07:35:31.467Z,15.67
2022-09-24T07:37:58.114Z,13.63
2022-09-24T07:40:25.340Z,13.67
2022-09-24T07:42:52.152Z,14.20
2022-09-24T07:45:19.921Z,14.43
2022-09-24T07:47:46.587Z,13.90
2022-09-24T07:50:13.686Z,13.00
2022-09-24T07:52:40.431Z,14.70
2022-09-24T07:55:07.786Z,15.20
2022-09-24T07:57:34.305Z,15.03
2022-09-24T08:00:01.066Z,14.00
2022-09-24T08:02:27.848Z,14.07
2022-09-24T08:04:54.523Z,14.63
2022-09-24T08:07:21.080Z,14.23
2022-09-24T08:09:47.606Z,14.20
2022-09-24T08:12:14.107Z,14.10
2022-09-24T08:14:41.759Z,14.30
2022-09-24T08:17:08.427Z,14.80
2022-09-24T08:19:34.974Z,15.20
2022-09-24T08:22:02.080Z,14.50
2022-09-24T08:24:28.971Z,15.67
2022-09-24T08:26:55.508Z,14.97
2022-09-24T08:29:21.977Z,14.73
2022-09-24T08:31:49.129Z,16.60
2022-09-24T08:34:15.684Z,16.57
2022-09-24T08:36:43.084Z,15.50
2022-09-24T08:39:10.428Z,15.67
2022-09-24T08:41:44.103Z,14.70
2022-09-24T08:44:46.689Z,15.30
2022-09-24T08:47:23.783Z,15.30
2022-09-24T08:50:16.084Z,14.67
2022-09-24T08:52:42.750Z,14.90
2022-09-24T08:55:21.435Z,14.70
2022-09-24T08:58:01.066Z,15.47
2022-09-24T09:00:30.844Z,16.40
2022-09-24T09:03:12.510Z,15.50
2022-09-24T09:06:00.883Z,15.70
2022-09-24T09:09:01.299Z,15.33
2022-09-24T09:11:24.238Z,15.87
2022-09-24T09:13:57.826Z,15.30
2022-09-24T09:16:33.662Z,16.80
2022-09-24T09:19:06.043Z,14.93
2022-09-24T09:21:44.973Z,15.93
2022-09-24T09:24:23.256Z,14.70
2022-09-24T09:26:54.549Z,15.80
2022-09-24T09:29:27.937Z,16.37
2022-09-24T09:32:30.798Z,16.10
2022-09-24T09:35:15.012Z,16.67
2022-09-24T09:37:49.243Z,16.23
2022-09-24T09:40:53.916Z,16.43
2022-09-24T09:43:20.909Z,16.53
2022-09-24T09:45:56.425Z,15.90
2022-09-24T09:48:28.054Z,16.93
2022-09-24T09:51:00.851Z,15.80
2022-09-24T09:53:31.157Z,13.87
2022-09-24T09:56:07.378Z,14.00
2022-09-24T09:58:36.723Z,13.83
2022-09-24T10:01:04.936Z,13.63
2022-09-24T10:03:36.317Z,13.73
2022-09-24T10:06:06.238Z,14.20
2022-09-24T10:08:33.294Z,13.73
2022-09-24T10:11:01.650Z,15.00
2022-09-24T10:13:29.184Z,13.17
2022-09-24T10:15:59.191Z,12.70
2022-09-24T10:18:34.516Z,13.97
2022-09-24T10:21:05.097Z,14.13
2022-09-24T10:23:36.553Z,13.50
2022-09-24T10:26:05.145Z,12.83
2022-09-24T10:28:53.379Z,14.53
2022-09-24T10:31:25.206Z,12.30
2022-09-24T10:33:55.039Z,13.80
2022-09-24T10:36:27.870Z,13.80
2022-09-24T10:39:14.551Z,15.23
2022-09-24T10:41:49.593Z,15.60
2022-09-24T10:44:17.468Z,14.57
2022-09-24T10:47:19.836Z,14.30
2022-09-24T10:49:55.625Z,15.77
2022-09-24T10:52:42.175Z,15.70
2022-09-24T10:55:22.071Z,16.73
2022-09-24T10:57:58.256Z,18.90
2022-09-24T11:00:33.836Z,17.30
2022-09-24T11:03:16.086Z,19.00
2022-09-24T11:05:55.266Z,17.90
2022-09-24T11:08:34.874Z,17.37
2022-09-24T11:11:19.850Z,16.43
2022-09-24T11:14:17.099Z,17.93
2022-09-24T11:17:09.694Z,17.80
2022-09-24T11:19:56.554Z,17.40
2022-09-24T11:23:00.071Z,18.27
2022-09-24T11:25:52.796Z,18.60
2022-09-24T11:28:42.302Z,18.67
2022-09-24T11:31:23.246Z,18.37
2022-09-24T11:34:39.911Z,18.70
2022-09-24T11:37:23.863Z,18.53
2022-09-24T11:40:26.079Z,18.67
2022-09-24T11:43:26.365Z,21.37
2022-09-24T11:46:12.161Z,21.23
2022-09-24T11:48:58.924Z,20.87
2022-09-24T11:52:01.574Z,20.47
2022-09-24T11:54:42.831Z,20.17
2022-09-24T11:57:18.728Z,21.37
2022-09-24T12:00:11.948Z,21.80
2022-09-24T12:02:50.560Z,23.60
2022-09-24T12:05:35.569Z,18.47
2022-09-24T12:08:20.963Z,18.77
2022-09-24T12:11:14.304Z,21.20
2022-09-24T12:13:57.382Z,23.70
2022-09-24T12:16:30.012Z,21.27
2022-09-24T12:19:06.502Z,20.20
2022-09-24T12:21:45.277Z,20.80
2022-09-24T12:24:29.101Z,21.00
2022-09-24T12:26:58.611Z,20.13
2022-09-24T12:29:59.196Z,20.70
2022-09-24T12:32:54.200Z,21.00
2022-09-24T12:35:33.258Z,19.20
2022-09-24T12:38:21.574Z,18.10
2022-09-24T12:41:06.963Z,17.50
2022-09-24T12:43:42.964Z,18.33
2022-09-24T12:46:21.497Z,17.20
2022-09-24T12:48:49.993Z,17.63
2022-09-24T12:51:22.076Z,15.60
2022-09-24T12:53:58.532Z,16.63
2022-09-24T12:56:30.785Z,17.40
2022-09-24T12:58:58.132Z,16.07
2022-09-24T13:01:24.693Z,13.60
2022-09-24T13:04:16.489Z,14.80
2022-09-24T13:06:47.810Z,14.67
2022-09-24T13:09:34.506Z,14.47
2022-09-24T13:12:14.266Z,15.13
2022-09-24T13:14:44.082Z,16.77
2022-09-24T13:17:15.614Z,15.30
2022-09-24T13:19:47.395Z,15.17
2022-09-24T13:22:22.982Z,14.73
2022-09-24T13:24:52.615Z,16.00
2022-09-24T13:27:31.354Z,16.33
2022-09-24T13:34:48.570Z,17.33
2022-09-24T13:37:23.045Z,15.77
2022-09-24T13:39:58.547Z,15.43
2022-09-24T13:42:47.556Z,16.67
2022-09-24T13:45:21.806Z,15.50
2022-09-24T13:47:53.474Z,16.60
2022-09-24T13:50:23.676Z,16.80
2022-09-24T13:53:00.758Z,18.40
2022-09-24T13:55:30.985Z,17.47
2022-09-24T13:57:58.070Z,17.07
2022-09-24T14:00:27.455Z,16.87
2022-09-24T14:02:59.372Z,15.60
2022-09-24T14:05:27.009Z,17.67
2022-09-24T14:08:02.771Z,16.83
2022-09-24T14:10:29.808Z,16.57
2022-09-24T14:13:14.075Z,18.07
2022-09-24T14:16:07.547Z,15.83
2022-09-24T14:18:35.181Z,16.30
2022-09-24T14:21:10.459Z,16.90
2022-09-24T14:23:43.221Z,15.50
2022-09-24T14:26:21.579Z,16.73
2022-09-24T14:28:48.304Z,17.20
2022-09-24T14:31:14.947Z,17.50
2022-09-24T14:33:41.786Z,19.10
2022-09-24T14:36:12.619Z,18.13
2022-09-24T14:39:01.631Z,18.70
2022-09-24T14:41:36.248Z,18.60
2022-09-24T14:44:07.784Z,17.37
2022-09-24T14:46:40.907Z,17.87
2022-09-24T14:49:24.060Z,18.70
2022-09-24T14:51:58.759Z,17.43
2022-09-24T14:54:42.502Z,19.50
2022-09-24T14:57:35.476Z,18.70
2022-09-24T15:00:02.265Z,17.90
2022-09-24T15:02:28.811Z,19.40
2022-09-24T15:05:04.809Z,18.77
2022-09-24T15:07:34.445Z,20.97
2022-09-24T15:10:02.692Z,19.50
2022-09-24T15:12:32.395Z,17.97
2022-09-24T15:15:00.217Z,18.03
2022-09-24T15:17:34.762Z,19.10
2022-09-24T15:20:04.052Z,18.40
2022-09-24T15:22:31.492Z,17.93
2022-09-24T15:25:01.906Z,18.77
2022-09-24T15:27:32.165Z,17.83
2022-09-24T15:30:01.388Z,19.80
2022-09-24T15:32:31.160Z,17.63
2022-09-24T15:34:58.088Z,18.20
2022-09-24T15:37:26.540Z,18.73
2022-09-24T15:39:57.703Z,19.53
2022-09-24T15:42:27.444Z,19.47
2022-09-24T15:44:54.702Z,21.10
2022-09-24T15:47:21.300Z,18.50
2022-09-24T15:49:48.238Z,19.50
2022-09-24T15:52:24.242Z,19.60
2022-09-24T15:54:52.292Z,19.30
2022-09-24T15:57:18.892Z,22.87
2022-09-24T15:59:45.464Z,21.00
2022-09-24T16:02:18.037Z,19.53
2022-09-24T16:04:45.026Z,21.57
2022-09-24T16:07:11.602Z,21.30
2022-09-24T16:09:38.443Z,20.20
2022-09-24T16:12:05.196Z,21.73
2022-09-24T16:14:32.367Z,21.70
2022-09-24T16:16:58.874Z,23.20
2022-09-24T16:19:25.847Z,24.50
2022-09-24T16:21:52.445Z,22.80
2022-09-24T16:24:19.004Z,22.50
2022-09-24T16:26:45.559Z,22.37
2022-09-24T16:29:12.201Z,22.70
2022-09-24T16:31:39.125Z,22.67
2022-09-24T16:34:05.705Z,22.40
2022-09-24T16:36:32.216Z,22.80
2022-09-24T16:38:58.747Z,23.90
2022-09-24T16:41:25.634Z,24.77
2022-09-24T16:43:55.709Z,23.87
2022-09-24T16:46:23.145Z,22.70
2022-09-24T16:48:49.890Z,24.10
2022-09-24T16:51:17.302Z,21.83
2022-09-24T16:53:48.391Z,22.93
2022-09-24T16:56:17.279Z,24.07
2022-09-24T16:58:45.801Z,22.50
2022-09-24T17:01:18.399Z,24.90
2022-09-24T17:03:49.956Z,26.10
2022-09-24T17:06:22.059Z,26.40
2022-09-24T17:09:07.419Z,25.80
2022-09-24T17:11:34.344Z,27.70
2022-09-24T17:14:01.180Z,28.27
2022-09-24T17:16:27.810Z,26.97
2022-09-24T17:18:55.282Z,26.70
2022-09-24T17:21:22.815Z,26.70
2022-09-24T17:23:50.300Z,24.93
2022-09-24T17:26:19.397Z,26.30
2022-09-24T17:28:47.200Z,25.10
2022-09-24T17:31:16.303Z,25.10
2022-09-24T17:33:44.377Z,26.33
2022-09-24T17:36:14.076Z,24.60
2022-09-24T17:38:40.696Z,25.47
2022-09-24T17:41:10.308Z,25.43
2022-09-24T17:43:38.075Z,24.73
2022-09-24T17:46:12.891Z,26.37
2022-09-24T17:48:44.377Z,27.10
2022-09-24T17:51:19.114Z,27.70
2022-09-24T17:53:46.869Z,27.60
2022-09-24T17:56:14.772Z,28.07
2022-09-24T17:58:44.318Z,29.70
2022-09-24T18:01:17.478Z,26.80
2022-09-24T18:03:45.548Z,32.20
2022-09-24T18:06:14.744Z,27.97
2022-09-24T18:08:44.077Z,28.10
2022-09-24T18:11:17.339Z,28.50
2022-09-24T18:13:44.756Z,28.47
2022-09-24T18:16:16.513Z,28.60
2022-09-24T18:18:44.704Z,28.63
2022-09-24T18:21:14.083Z,29.07
2022-09-24T18:23:41.648Z,29.93
2022-09-24T18:26:11.308Z,31.03
2022-09-24T18:28:43.370Z,28.00
2022-09-24T18:31:10.705Z,30.33
2022-09-24T18:33:39.531Z,30.07
2022-09-24T18:36:08.796Z,30.33
2022-09-24T18:38:35.401Z,31.13
2022-09-24T18:41:08.006Z,28.10
2022-09-24T18:43:34.975Z,28.50
2022-09-24T18:46:07.046Z,27.67
2022-09-24T18:48:34.039Z,29.97
2022-09-24T18:51:00.764Z,28.73
2022-09-24T18:53:31.324Z,29.90
2022-09-24T18:56:02.950Z,30.70
2022-09-24T18:58:29.450Z,30.57
2022-09-24T19:01:00.463Z,31.97
2022-09-24T19:03:28.511Z,32.03
2022-09-24T19:06:00.206Z,37.03
2022-09-24T19:08:28.353Z,38.17
2022-09-24T19:10:55.434Z,30.37
2022-09-24T19:13:26.208Z,32.47
2022-09-24T19:15:53.173Z,29.90
2022-09-24T19:18:20.232Z,31.07
2022-09-24T19:20:48.652Z,30.33
2022-09-24T19:23:17.102Z,33.13
2022-09-24T19:25:43.790Z,29.17
2022-09-24T19:28:12.447Z,32.87
2022-09-24T19:30:47.571Z,30.57
2022-09-24T19:33:17.036Z,30.23
2022-09-24T19:35:54.247Z,31.43
2022-09-24T19:38:29.055Z,31.60
2022-09-24T19:40:57.816Z,32.27
2022-09-24T19:43:24.764Z,30.37
2022-09-24T19:45:56.006Z,28.80
2022-09-24T19:48:22.765Z,29.10
2022-09-24T19:50:49.342Z,31.67
2022-09-24T19:53:16.763Z,29.80
2022-09-24T19:55:44.402Z,30.10
2022-09-24T19:58:11.237Z,30.00
2022-09-24T20:00:38.900Z,30.63
2022-09-24T20:03:05.646Z,32.33
2022-09-24T20:05:32.288Z,28.93
2022-09-24T20:07:59.015Z,28.40
2022-09-24T20:10:25.570Z,27.17
2022-09-24T20:12:54.367Z,28.03
2022-09-24T20:15:22.280Z,27.80
2022-09-24T20:17:48.837Z,29.00
2022-09-24T20:20:15.933Z,28.00
2022-09-24T20:22:42.500Z,25.70
2022-09-24T20:25:09.316Z,27.50
2022-09-24T20:27:51.134Z,28.97
2022-09-24T20:30:24.165Z,26.87
2022-09-24T20:32:50.923Z,28.37
2022-09-24T20:35:17.463Z,27.90
2022-09-24T20:37:44.705Z,26.10
2022-09-24T20:40:11.505Z,27.10
2022-09-24T20:42:38.808Z,26.00
2022-09-24T20:45:07.159Z,26.70
2022-09-24T20:47:33.673Z,26.43
2022-09-24T20:50:00.204Z,25.83
2022-09-24T20:52:26.943Z,32.80
2022-09-24T20:54:53.454Z,35.90
2022-09-24T20:57:19.945Z,27.07
2022-09-24T20:59:46.492Z,26.77
2022-09-24T21:02:13.084Z,26.20
2022-09-24T21:04:39.664Z,27.67
2022-09-24T21:07:06.245Z,23.37
2022-09-24T21:09:32.986Z,23.60
2022-09-24T21:12:01.354Z,24.07
2022-09-24T21:14:28.807Z,28.20
2022-09-24T21:16:55.380Z,27.47
2022-09-24T21:19:21.994Z,23.93
2022-09-24T21:21:48.500Z,21.80
2022-09-24T21:24:15.635Z,22.63
2022-09-24T21:26:44.935Z,24.20
2022-09-24T21:29:17.448Z,25.30
2022-09-24T21:31:46.114Z,26.10
2022-09-24T21:34:15.761Z,24.23
2022-09-24T21:36:45.341Z,23.27
2022-09-24T21:39:22.778Z,26.57
2022-09-24T21:41:51.176Z,26.60
2022-09-24T21:44:19.029Z,26.40
2022-09-24T21:46:46.212Z,28.10
2022-09-24T21:49:13.368Z,25.40
2022-09-24T21:51:41.027Z,27.13
2022-09-24T21:54:14.187Z,26.23
2022-09-24T21:56:40.923Z,26.07
2022-09-24T21:59:27.519Z,24.10
2022-09-24T22:01:55.411Z,24.93
2022-09-24T22:04:22.518Z,26.00
2022-09-24T22:06:50.864Z,26.80
2022-09-24T22:09:18.415Z,25.30
2022-09-24T22:11:45.475Z,26.73
2022-09-24T22:14:13.057Z,26.10
2022-09-24T22:16:40.023Z,28.80
2022-09-24T22:19:09.280Z,31.13
2022-09-24T22:21:36.465Z,29.47
2022-09-24T22:24:03.559Z,30.87
2022-09-24T22:26:30.129Z,29.20
2022-09-24T22:28:57.071Z,32.00
2022-09-24T22:31:23.778Z,28.57
2022-09-24T22:34:08.979Z,33.50
2022-09-24T22:36:36.283Z,29.20
2022-09-24T22:39:04.426Z,26.83
2022-09-24T22:41:32.676Z,26.20
2022-09-24T22:43:59.315Z,28.00
2022-09-24T22:46:27.132Z,31.60
2022-09-24T22:48:55.042Z,29.20
2022-09-24T22:51:22.691Z,30.20
2022-09-24T22:53:49.698Z,30.27
2022-09-24T22:56:18.984Z,31.00
2022-09-24T22:58:51.743Z,32.43
2022-09-24T23:01:24.253Z,31.47
2022-09-24T23:03:52.513Z,32.60
2022-09-24T23:06:20.767Z,29.77
2022-09-24T23:08:48.425Z,32.37
2022-09-24T23:11:16.354Z,33.17
2022-09-24T23:13:44.376Z,31.70
2022-09-24T23:16:17.807Z,35.00
2022-09-24T23:18:48.933Z,36.43
2022-09-24T23:21:17.022Z,35.20
2022-09-24T23:23:44.683Z,38.60
2022-09-24T23:26:16.749Z,37.07
2022-09-24T23:28:52.661Z,35.80
2022-09-24T23:31:22.347Z,33.30
2022-09-24T23:33:49.882Z,31.97
2022-09-24T23:36:17.019Z,30.93
2022-09-24T23:38:44.219Z,33.17
2022-09-24T23:41:12.222Z,30.30
2022-09-24T23:43:38.992Z,32.10
2022-09-24T23:46:05.879Z,27.63
2022-09-24T23:48:32.737Z,31.73
2022-09-24T23:50:59.418Z,28.67
2022-09-24T23:53:26.550Z,30.07
2022-09-24T23:55:54.905Z,32.33
2022-09-24T23:58:23.077Z,29.33
